Terminal Aerodrome Forecast
Issued by NWS

Home | Current Version | Previous Version | Graphics & Text | Print | Product List | Glossary On
Versions: 1 2 3 4 5 6 7 8 9 10 11 12 13 14 15 16 17 18 19 20 21 22 23 24 25 26
000
FTUS43 KABR 190500
TAFATY
TAF
KATY 190524Z 1906/2006 17015KT P6SM BKN200
     FM190900 18014KT P6SM OVC008
     FM192100 23012KT P6SM SCT025
     FM200000 25005KT P6SM BKN250=

USA.gov is the U.S. government's official web portal to all federal, state and local government web resources and services.